This is the latest recevied weather packets stored in our database for station/object SM6LNJ-13. If no packets are shown the sender has not sent any weather packets the latest 10 day(s).
| Time | Temp. | Humidity | Pressure | Rain* | Wind** | Luminosity | Snow |
|---|---|---|---|---|---|---|---|
| 1777620345 | 12.78° C | 71% | 1426.2 hPa | 0 mm | - | - | - |
| 1777620105 | 12.78° C | 72% | 1426 hPa | 0 mm | - | - | - |
| 1777619986 | 12.78° C | 72% | 1425.9 hPa | 0 mm | - | - | - |
| 1777619865 | 12.78° C | 72% | 1425.6 hPa | 0 mm | - | - | - |
| 1777619745 | 12.78° C | 73% | 1425.7 hPa | 0 mm | - | - | - |
| 1777619625 | 12.78° C | 73% | 1425.5 hPa | 0 mm | - | - | - |
| 1777619506 | 12.78° C | 73% | 1425.4 hPa | 0 mm | - | - | - |
| 1777619339 | 12.78° C | 74% | 1425.1 hPa | 0 mm | - | - | - |
| 1777619265 | 12.78° C | 74% | 1425.1 hPa | 0 mm | - | - | - |
| 1777619146 | 12.22° C | 74% | 1425 hPa | 0 mm | - | - | - |
| 1777612905 | 10° C | 93% | 1418.9 hPa | 0 mm | - | - | - |
| 1777612665 | 9.44° C | 93% | 1418.5 hPa | 0 mm | - | - | - |
| 1777612426 | 9.44° C | 93% | 1418.2 hPa | 0 mm | - | - | - |
| 1777612305 | 9.44° C | 93% | 1417.9 hPa | 0 mm | - | - | - |
| 1777612065 | 9.44° C | 93% | 1417.4 hPa | 0 mm | - | - | - |
| 1777611946 | 8.89° C | 93% | 1417.2 hPa | 0 mm | - | - | - |
| 1777611705 | 8.89° C | 93% | 1416.3 hPa | 0 mm | - | - | - |
| 1777611586 | 8.89° C | 93% | 1416.3 hPa | 0 mm | - | - | - |
| 1777601505 | 7.22° C | 93% | 1413 hPa | 0 mm | - | - | - |
| 1777580746 | 6.67° C | 92% | 1415 hPa | 0 mm | - | - | - |
| 1777580505 | 6.67° C | 92% | 1415 hPa | 0 mm | - | - | - |
| 1777580386 | 6.67° C | 92% | 1415.1 hPa | 0 mm | - | - | - |
| 1777580266 | 6.67° C | 92% | 1415.2 hPa | 0 mm | - | - | - |
| 1777580146 | 6.67° C | 92% | 1415.3 hPa | 0 mm | - | - | - |
| 1777580026 | 6.67° C | 92% | 1415.3 hPa | 0 mm | - | - | - |
* Rain latest hour (hover to see other rain measurements)
** Current wind speed in m/s (hover to see current wind gust speed)